Time;durP1;ratioP1;P1;durP2;ratioP2;P2;SDS_P1;SDS_P2;PMS_P1;PMS_P2;Temp;Humidity;BMP_temperature;BMP_pressure;BME280_temperature;BME280_humidity;BME280_pressure;Samples;Min_cycle;Max_cycle;Signal;HPM_P1;HPM_P2
2023/06/11 09:15:28;;;;;;;;;;;;;;;;;;;;;
2023/06/11 13:21:29;;;;;;;;;31.67;29.00;;;;;27.29;58.66;100916.03;6314900;22;1260701;-66
2023/06/11 16:22:35;;;;;;;;;32.25;30.00;;;;;25.88;72.22;100897.78;6344472;22;45253;-85
2023/06/11 16:25:00;;;;;;;;;31.75;30.75;;;;;25.96;70.55;100906.16;6380141;22;45256;-83
2023/06/11 16:27:25;;;;;;;;;35.25;31.75;;;;;25.96;71.35;100916.19;6375153;22;51061;-83
2023/06/11 16:29:51;;;;;;;;;37.25;32.00;;;;;25.95;71.87;100903.53;6375294;22;49908;-83
2023/06/11 16:32:16;;;;;;;;;38.25;33.50;;;;;25.97;72.27;100912.47;6344337;22;45326;-83
2023/06/11 16:34:42;;;;;;;;;32.75;31.25;;;;;25.97;72.49;100920.66;6344649;22;48122;-83
2023/06/11 16:37:07;;;;;;;;;38.50;34.00;;;;;25.87;71.90;100904.22;6347478;22;45341;-82
2023/06/11 16:39:32;;;;;;;;;40.00;35.75;;;;;25.88;72.09;100911.44;6376355;22;45336;-81
2023/06/11 16:41:58;;;;;;;;;37.00;33.00;;;;;25.84;71.97;100912.72;6379816;22;45308;-82
2023/06/11 16:44:23;;;;;;;;;35.25;32.00;;;;;25.82;72.35;100904.66;6379784;22;49309;-82
2023/06/11 16:46:49;;;;;;;;;33.50;32.00;;;;;25.84;71.65;100901.78;6375502;22;45757;-82
2023/06/11 16:49:15;;;;;;;;;33.75;32.50;;;;;25.83;72.34;100903.66;6374478;22;45353;-81
2023/06/11 16:51:41;;;;;;;;;40.25;33.75;;;;;25.80;71.99;100900.38;6374350;22;45422;-82
2023/06/11 16:54:06;;;;;;;;;36.75;33.75;;;;;25.75;72.29;100895.31;6347425;22;48166;-82
2023/06/11 16:56:32;;;;;;;;;33.50;31.50;;;;;25.78;71.85;100902.38;6375624;22;45276;-82
2023/06/11 16:58:57;;;;;;;;;34.25;32.50;;;;;25.67;71.68;100908.84;6348963;22;45304;-81
2023/06/11 17:01:25;;;;;;;;;35.50;32.25;;;;;25.71;72.35;100913.03;6377586;22;44720;-81
2023/06/11 17:03:51;;;;;;;;;31.00;28.00;;;;;25.69;71.45;100907.72;6346045;22;47225;-81
2023/06/11 17:06:16;;;;;;;;;35.25;32.75;;;;;25.67;71.66;100903.38;6345583;22;47264;-80
2023/06/11 17:08:42;;;;;;;;;35.50;32.50;;;;;25.65;72.24;100906.25;6371439;22;45282;-79
2023/06/11 17:11:08;;;;;;;;;33.00;30.75;;;;;25.64;71.95;100917.34;6370950;22;45390;-81
2023/06/11 17:13:33;;;;;;;;;33.50;32.00;;;;;25.66;71.39;100920.78;6371058;22;45391;-81
2023/06/11 17:15:58;;;;;;;;;28.00;27.25;;;;;25.63;71.41;100915.63;6369411;22;45387;-85
2023/06/11 17:18:24;;;;;;;;;31.50;30.00;;;;;25.65;70.56;100908.13;6367665;22;45428;-85
2023/06/11 17:20:49;;;;;;;;;28.00;28.00;;;;;25.60;70.68;100889.44;6371505;22;45347;-86
2023/06/11 17:23:17;;;;;;;;;29.75;27.50;;;;;25.68;70.73;100908.72;6342611;22;48018;-85
2023/06/11 17:25:44;;;;;;;;;29.50;27.50;;;;;25.61;70.86;100898.47;6368962;22;45350;-84
2023/06/11 17:28:10;;;;;;;;;31.50;30.25;;;;;25.64;70.62;100907.28;6338690;22;45304;-85
2023/06/11 17:30:35;;;;;;;;;36.00;32.00;;;;;25.63;71.21;100915.63;6370040;22;45245;-84
2023/06/11 17:33:00;;;;;;;;;35.25;31.25;;;;;25.61;70.51;100929.44;6373095;22;45719;-86
2023/06/11 17:35:26;;;;;;;;;27.00;27.00;;;;;25.51;70.47;100928.56;6344423;22;45669;-85
2023/06/11 17:37:53;;;;;;;;;28.00;28.00;;;;;25.51;69.98;100928.56;6374044;22;45368;-85
2023/06/11 17:40:19;;;;;;;;;28.75;28.75;;;;;25.51;70.73;100937.63;6371605;22;45281;-85
2023/06/11 17:42:44;;;;;;;;;29.75;28.50;;;;;25.51;70.99;100925.84;6341476;22;46906;-85
2023/06/11 17:45:10;;;;;;;;;30.75;29.75;;;;;25.54;70.72;100936.44;6343510;22;45409;-85
2023/06/11 17:47:36;;;;;;;;;31.25;28.00;;;;;25.55;71.21;100932.72;6370131;22;45353;-85
2023/06/11 17:50:05;;;;;;;;;31.75;27.75;;;;;25.51;70.55;100928.56;6371741;22;45265;-85
2023/06/11 17:52:31;;;;;;;;;28.00;25.75;;;;;25.40;68.97;100920.50;6368481;22;45611;-85
2023/06/11 17:54:56;;;;;;;;;31.50;29.75;;;;;25.50;69.58;100945.97;6370835;22;45464;-85
2023/06/11 17:57:21;;;;;;;;;27.50;25.00;;;;;25.50;70.05;100952.28;6370104;22;50006;-85
2023/06/11 17:59:47;;;;;;;;;26.00;25.75;;;;;25.45;70.03;100948.25;6342751;22;45418;-85
2023/06/11 18:02:12;;;;;;;;;26.00;25.00;;;;;25.48;69.24;100975.31;6369808;22;46129;-85
2023/06/11 18:04:37;;;;;;;;;27.00;26.25;;;;;25.50;70.41;100982.34;6369397;22;55760;-85
2023/06/11 18:07:04;;;;;;;;;28.00;27.50;;;;;25.49;70.27;100972.44;6370854;22;45552;-85
2023/06/11 18:09:29;;;;;;;;;26.75;25.75;;;;;25.49;69.76;100980.63;6371036;22;45290;-85
2023/06/11 18:11:54;;;;;;;;;25.50;24.75;;;;;25.48;69.53;100961.63;6369888;22;45556;-85
2023/06/11 18:14:21;;;;;;;;;25.75;25.50;;;;;25.52;69.12;100983.06;6343098;22;45499;-85
2023/06/11 18:16:47;;;;;;;;;28.75;26.00;;;;;25.47;69.37;100959.91;6342507;22;45286;-85
2023/06/11 18:19:12;;;;;;;;;29.75;26.50;;;;;25.48;69.33;100961.63;6370963;22;45264;-85
2023/06/11 18:21:38;;;;;;;;;30.50;29.50;;;;;25.43;69.55;100956.59;6370339;22;45521;-85
2023/06/11 18:24:03;;;;;;;;;23.75;23.75;;;;;25.46;69.62;100963.63;6340607;22;45441;-86
2023/06/11 18:26:29;;;;;;;;;26.75;25.50;;;;;25.48;68.19;100972.56;6368993;22;45314;-86
2023/06/11 18:28:54;;;;;;;;;24.50;21.50;;;;;25.41;67.75;100952.25;6372616;22;45258;-86
2023/06/11 18:31:22;;;;;;;;;25.50;24.50;;;;;25.45;68.00;100954.56;6343530;22;47328;-85
2023/06/11 18:33:47;;;;;;;;;27.50;25.25;;;;;25.39;67.78;100952.41;6371545;22;45369;-85
2023/06/11 18:36:12;;;;;;;;;25.00;24.50;;;;;25.24;68.33;100921.00;6372950;22;45398;-85
2023/06/11 18:38:38;;;;;;;;;26.75;25.75;;;;;25.27;67.72;100932.53;6343209;22;45460;-84
2023/06/11 18:41:03;;;;;;;;;23.00;23.00;;;;;25.30;67.21;100931.41;6372236;22;46132;-85
2023/06/11 18:43:29;;;;;;;;;27.00;23.50;;;;;25.24;67.83;100921.00;6371213;22;45304;-85
2023/06/11 18:45:54;;;;;;;;;26.25;26.25;;;;;25.30;67.47;100921.31;6370695;22;45273;-85
2023/06/11 18:48:20;;;;;;;;;27.75;26.75;;;;;25.27;67.59;100953.53;6343543;22;45421;-85
2023/06/11 18:50:45;;;;;;;;;28.50;27.00;;;;;25.27;67.37;101036.34;6371269;22;45394;-85
2023/06/11 18:53:10;;;;;;;;;29.00;29.00;;;;;25.19;67.43;101051.66;6370703;22;45360;-85
2023/06/11 19:42:02;;;;;;;;;4.50;4.00;;;;;23.67;69.36;100947.38;6260783;22;47018;-67
2023/06/11 19:44:43;;;;;;;;;;;;;;;;;;;;;
2023/06/11 19:50:39;;;;;;;;;5.00;5.00;;;;;23.63;69.22;100951.34;6271610;22;45752;-67
2023/06/11 19:53:40;;;;;;;;;;;;;;;;;;;;;
2023/06/11 19:56:19;;;;;;;;;;;;;;;;;;;;;
2023/06/11 19:59:35;;;;;;;;;4.00;4.00;;;;;23.60;69.75;100970.66;6302700;22;72888;-68
2023/06/11 20:02:28;;;;;;;;;5.75;4.50;;;;;23.34;68.91;100956.53;6235172;22;45544;-68
2023/06/11 20:04:57;;;;;;;;;5.25;4.25;;;;;23.35;70.15;100982.75;6304309;22;45855;-67
2023/06/11 20:07:50;;;;;;;;;4.00;4.00;;;;;23.32;70.21;100977.56;6303459;22;45593;-68
2023/06/11 20:13:37;;;;;;;;;;;;;;;;;;;;;
2023/06/11 20:16:09;;;;;;;;;4.50;4.00;;;;;22.89;70.34;100922.03;6302310;22;71465;-68
2023/06/11 20:18:58;;;;;;;;;6.25;6.25;;;;;23.11;70.95;100955.69;6276153;22;48459;-67
2023/06/11 20:24:11;;;;;;;;;5.75;5.75;;;;;22.83;71.32;100906.19;6303122;22;45358;-68
2023/06/11 20:26:49;;;;;;;;;;;;;;;;;;;;;
2023/06/11 20:29:56;;;;;;;;;;;;;;;;;;;;;
2023/06/11 20:33:00;;;;;;;;;;;;;;;;;;;;;
2023/06/11 20:36:21;;;;;;;;;;;;;;;;;;;;;
2023/06/11 20:46:22;;;;;;;;;;;;;;;;;;;;;
2023/06/11 20:49:23;;;;;;;;;;;;;;;;;;;;;
2023/06/11 20:51:51;;;;;;;;;6.50;6.50;;;;;22.51;72.54;100936.00;6301183;22;72812;-67
2023/06/11 20:54:22;;;;;;;;;8.00;7.00;;;;;22.47;72.98;100923.63;6303500;22;45346;-66
